^^
Marion, Virginia Banner
 

U.S. Satellite Loop
U.S. National Satellite Loop
View Satellite

Live Doppler Radar
Blacksburg, VA Nexrad Doppler Radar
View Radar

NW Atlantic Satellite
U.S. National Satellite Loop
View Satellite

US WX Conditions
US Weather Conditions
View Wx Conditions


USA Weather Finder


 

Adwolf, VA. Station Historical Data
[ Providing Data Since 6/07/2007 ]
Station Historical Data
Daily Summary for April 17, 2018 Units:  Both    English   Metric
« Previous Day
Next Day »
Daily Weekly Monthly Yearly Custom
  High: Low: Average:
Temperature: TemperatureF °F /  -17.8 °C 27.9 °F /  -2.3 °C 40.9 °F /  4.9 °C
Dew Point: DewpointF °F /  -17.8 °C 22.4 °F /  -5.3 °C 29.7 °F /  -1.3 °C
Humidity: Humidity% 41% 66%
Wind Speed: WindSpeedMPHmph /  0km/h - 7.1mph /  11.4km/h
Wind Gust: WindSpeedGustMPHmph /  0km/h - -
Wind- - WSW
Pressure: PressureIn in /  0 hPa 29.88 in /  1011.7 hPa -
Precipitation: 0.00 in /  0 mm    
Historical Graphs
 
 
Tabular Data for April 17, 2018
Time Temperature Dew Point Pressure Wind Wind Speed Wind Gust Humidity Rainfall Rate (Hourly) solar Conditions
TemperatureF °F /  -17.8 °C DewpointF °F /  -17.8 °C PressureInin /  0hPa Calm     Humidity% HourlyPrecipInin /  0mm SoftwareType W/m2 Conditions
00:00 28.4 °F /  -2 °C 23.6 °F /  -4.7 °C 30.02in /  1016.5hPa WSW 8.0mph /  12.9km/h 15.0mph /  24.1km/h 82% 0.00in /  0mm WeatherDisplay:10.37 W/m2 -SN
00:10 28.4 °F /  -2 °C 23.6 °F /  -4.7 °C 30.02in /  1016.5hPa WSW 6.0mph /  9.7km/h 15.0mph /  24.1km/h 82% 0.00in /  0mm WeatherDisplay:10.37 W/m2 OVC
00:20 28.4 °F /  -2 °C 23.6 °F /  -4.7 °C 30.02in /  1016.5hPa WSW 6.0mph /  9.7km/h 13.0mph /  20.9km/h 82% 0.00in /  0mm WeatherDisplay:10.37 W/m2 OVC
00:30 28.3 °F /  -2.1 °C 23.5 °F /  -4.7 °C 30.02in /  1016.5hPa SW 6.0mph /  9.7km/h 14.0mph /  22.5km/h 82% 0.00in /  0mm WeatherDisplay:10.37 W/m2 OVC
00:40 28.1 °F /  -2.2 °C 23.3 °F /  -4.8 °C 30.02in /  1016.5hPa WSW 7.0mph /  11.3km/h 19.0mph /  30.6km/h 82% 0.00in /  0mm WeatherDisplay:10.37 W/m2 OVC
00:50 28.0 °F /  -2.2 °C 23.2 °F /  -4.9 °C 30.02in /  1016.5hPa WSW 8.0mph /  12.9km/h 14.0mph /  22.5km/h 82% 0.00in /  0mm WeatherDisplay:10.37 W/m2 OVC
01:00 28.0 °F /  -2.2 °C 23.5 °F /  -4.7 °C 30.02in /  1016.5hPa WSW 7.0mph /  11.3km/h 16.0mph /  25.7km/h 83% 0.00in /  0mm WeatherDisplay:10.37 W/m2 OVC
01:10 28.0 °F /  -2.2 °C 23.5 °F /  -4.7 °C 30.03in /  1016.8hPa WSW 8.0mph /  12.9km/h 17.0mph /  27.4km/h 83% 0.00in /  0mm WeatherDisplay:10.37 W/m2 OVC
01:20 28.0 °F /  -2.2 °C 23.2 °F /  -4.9 °C 30.02in /  1016.5hPa WSW 10.0mph /  16.1km/h 20.0mph /  32.2km/h 82% 0.00in /  0mm WeatherDisplay:10.37 W/m2 OVC
01:30 27.9 °F /  -2.3 °C 23.4 °F /  -4.8 °C 30.03in /  1016.8hPa WSW 7.0mph /  11.3km/h 16.0mph /  25.7km/h 83% 0.00in /  0mm WeatherDisplay:10.37 W/m2 OVC
01:40 27.9 °F /  -2.3 °C 23.6 °F /  -4.7 °C 30.03in /  1016.8hPa WSW 9.0mph /  14.5km/h 20.0mph /  32.2km/h 84% 0.00in /  0mm WeatherDisplay:10.37 W/m2 OVC
01:50 27.9 °F /  -2.3 °C 23.4 °F /  -4.8 °C 30.03in /  1016.8hPa WSW 9.0mph /  14.5km/h 17.0mph /  27.4km/h 83% 0.00in /  0mm WeatherDisplay:10.37 W/m2 OVC
02:00 27.9 °F /  -2.3 °C 23.4 °F /  -4.8 °C 30.03in /  1016.8hPa WSW 8.0mph /  12.9km/h 14.0mph /  22.5km/h 83% 0.00in /  0mm WeatherDisplay:10.37 W/m2 OVC
02:10 28.0 °F /  -2.2 °C 23.2 °F /  -4.9 °C 30.03in /  1016.8hPa WSW 7.0mph /  11.3km/h 20.0mph /  32.2km/h 82% 0.00in /  0mm WeatherDisplay:10.37 W/m2 OVC
02:20 28.0 °F /  -2.2 °C 23.2 °F /  -4.9 °C 30.03in /  1016.8hPa WSW 6.0mph /  9.7km/h 14.0mph /  22.5km/h 82% 0.00in /  0mm WeatherDisplay:10.37 W/m2 OVC
02:30 28.1 °F /  -2.2 °C 23.0 °F /  -5 °C 30.02in /  1016.5hPa WSW 6.0mph /  9.7km/h 14.0mph /  22.5km/h 81% 0.00in /  0mm WeatherDisplay:10.37 W/m2 OVC
02:40 28.1 °F /  -2.2 °C 22.7 °F /  -5.2 °C 30.02in /  1016.5hPa WSW 7.0mph /  11.3km/h 16.0mph /  25.7km/h 80% 0.00in /  0mm WeatherDisplay:10.37 W/m2 OVC
02:50 28.1 °F /  -2.2 °C 22.7 °F /  -5.2 °C 30.02in /  1016.5hPa WSW 5.0mph /  8km/h 12.0mph /  19.3km/h 80% 0.00in /  0mm WeatherDisplay:10.37 W/m2 OVC
03:00 28.1 °F /  -2.2 °C 22.4 °F /  -5.3 °C 30.02in /  1016.5hPa WSW 7.0mph /  11.3km/h 17.0mph /  27.4km/h 79% 0.00in /  0mm WeatherDisplay:10.37 W/m2 OVC
03:10 28.2 °F /  -2.1 °C 22.5 °F /  -5.3 °C 30.02in /  1016.5hPa WSW 7.0mph /  11.3km/h 14.0mph /  22.5km/h 79% 0.00in /  0mm WeatherDisplay:10.37 W/m2 OVC
03:20 28.2 °F /  -2.1 °C 22.8 °F /  -5.1 °C 30.02in /  1016.5hPa WSW 6.0mph /  9.7km/h 16.0mph /  25.7km/h 80% 0.00in /  0mm WeatherDisplay:10.37 W/m2 OVC
03:30 28.2 °F /  -2.1 °C 22.5 °F /  -5.3 °C 30.02in /  1016.5hPa WSW 8.0mph /  12.9km/h 17.0mph /  27.4km/h 79% 0.00in /  0mm WeatherDisplay:10.37 W/m2 OVC
03:40 28.1 °F /  -2.2 °C 22.7 °F /  -5.2 °C 30.02in /  1016.5hPa WSW 5.0mph /  8km/h 12.0mph /  19.3km/h 80% 0.00in /  0mm WeatherDisplay:10.37 W/m2 OVC
03:50 28.1 °F /  -2.2 °C 22.7 °F /  -5.2 °C 30.02in /  1016.5hPa WSW 5.0mph /  8km/h 14.0mph /  22.5km/h 80% 0.00in /  0mm WeatherDisplay:10.37 W/m2 OVC
04:00 28.1 °F /  -2.2 °C 22.4 °F /  -5.3 °C 30.02in /  1016.5hPa WSW 7.0mph /  11.3km/h 14.0mph /  22.5km/h 79% 0.00in /  0mm WeatherDisplay:10.37 W/m2 OVC
04:10 28.2 °F /  -2.1 °C 22.5 °F /  -5.3 °C 30.02in /  1016.5hPa WSW 9.0mph /  14.5km/h 15.0mph /  24.1km/h 79% 0.00in /  0mm WeatherDisplay:10.37 W/m2 OVC
04:20 28.1 °F /  -2.2 °C 22.4 °F /  -5.3 °C 30.02in /  1016.5hPa WSW 8.0mph /  12.9km/h 13.0mph /  20.9km/h 79% 0.00in /  0mm WeatherDisplay:10.37 W/m2 OVC
04:30 28.1 °F /  -2.2 °C 22.4 °F /  -5.3 °C 30.02in /  1016.5hPa SW 8.0mph /  12.9km/h 19.0mph /  30.6km/h 79% 0.00in /  0mm WeatherDisplay:10.37 W/m2 OVC
04:40 28.1 °F /  -2.2 °C 22.4 °F /  -5.3 °C 30.02in /  1016.5hPa WSW 6.0mph /  9.7km/h 12.0mph /  19.3km/h 79% 0.00in /  0mm WeatherDisplay:10.37 W/m2 OVC
04:50 28.1 °F /  -2.2 °C 22.4 °F /  -5.3 °C 30.02in /  1016.5hPa SW 5.0mph /  8km/h 12.0mph /  19.3km/h 79% 0.00in /  0mm WeatherDisplay:10.37 W/m2 OVC
05:00 28.1 °F /  -2.2 °C 22.4 °F /  -5.3 °C 30.03in /  1016.8hPa WSW 8.0mph /  12.9km/h 14.0mph /  22.5km/h 79% 0.00in /  0mm WeatherDisplay:10.37 W/m2 OVC
05:10 28.1 °F /  -2.2 °C 22.5 °F /  -5.3 °C 30.03in /  1016.8hPa WSW 7.0mph /  11.3km/h 18.0mph /  29km/h 79% 0.00in /  0mm WeatherDisplay:10.37 W/m2 OVC
05:20 28.2 °F /  -2.1 °C 22.5 °F /  -5.3 °C 30.03in /  1016.8hPa WSW 10.0mph /  16.1km/h 20.0mph /  32.2km/h 79% 0.00in /  0mm WeatherDisplay:10.37 W/m2 OVC
05:30 28.2 °F /  -2.1 °C 22.5 °F /  -5.3 °C 30.03in /  1016.8hPa WSW 9.0mph /  14.5km/h 16.0mph /  25.7km/h 79% 0.00in /  0mm WeatherDisplay:10.37 W/m2 OVC
05:40 28.2 °F /  -2.1 °C 22.8 °F /  -5.1 °C 30.03in /  1016.8hPa WSW 7.0mph /  11.3km/h 14.0mph /  22.5km/h 80% 0.00in /  0mm WeatherDisplay:10.37 W/m2 OVC
05:50 28.2 °F /  -2.1 °C 22.5 °F /  -5.3 °C 30.04in /  1017.2hPa WSW 7.0mph /  11.3km/h 14.0mph /  22.5km/h 79% 0.00in /  0mm WeatherDisplay:10.37 W/m2 OVC
06:00 28.3 °F /  -2.1 °C 22.9 °F /  -5.1 °C 30.04in /  1017.2hPa SW 6.0mph /  9.7km/h 12.0mph /  19.3km/h 80% 0.00in /  0mm WeatherDisplay:10.37 W/m2 OVC
06:10 28.4 °F /  -2 °C 22.7 °F /  -5.2 °C 30.04in /  1017.2hPa WSW 3.0mph /  4.8km/h 14.0mph /  22.5km/h 79% 0.00in /  0mm WeatherDisplay:10.37 W/m2 OVC
06:20 28.5 °F /  -1.9 °C 22.8 °F /  -5.1 °C 30.04in /  1017.2hPa WSW 5.0mph /  8km/h 12.0mph /  19.3km/h 79% 0.00in /  0mm WeatherDisplay:10.37 W/m2 OVC
06:30 28.5 °F /  -1.9 °C 22.8 °F /  -5.1 °C 30.05in /  1017.5hPa WSW 6.0mph /  9.7km/h 10.0mph /  16.1km/h 79% 0.00in /  0mm WeatherDisplay:10.37 W/m2 OVC
06:40 28.6 °F /  -1.9 °C 22.9 °F /  -5.1 °C 30.05in /  1017.5hPa SW 6.0mph /  9.7km/h 10.0mph /  16.1km/h 79% 0.00in /  0mm WeatherDisplay:10.37 W/m2 OVC
06:50 28.6 °F /  -1.9 °C 22.9 °F /  -5.1 °C 30.05in /  1017.5hPa WSW 5.0mph /  8km/h 9.0mph /  14.5km/h 79% 0.00in /  0mm WeatherDisplay:10.37 W/m2 OVC
07:00 28.7 °F /  -1.8 °C 23.0 °F /  -5 °C 30.05in /  1017.5hPa WSW 5.0mph /  8km/h 12.0mph /  19.3km/h 79% 0.00in /  0mm WeatherDisplay:10.37 W/m2 OVC
07:10 28.6 °F /  -1.9 °C 23.0 °F /  -5 °C 30.06in /  1017.8hPa WSW 5.0mph /  8km/h 13.0mph /  20.9km/h 79% 0.00in /  0mm WeatherDisplay:10.37 W/m2 OVC
07:20 28.7 °F /  -1.8 °C 23.0 °F /  -5 °C 30.06in /  1017.8hPa WSW 5.0mph /  8km/h 17.0mph /  27.4km/h 79% 0.00in /  0mm WeatherDisplay:10.37 W/m2 OVC
07:30 28.7 °F /  -1.8 °C 23.3 °F /  -4.8 °C 30.06in /  1017.8hPa WSW 3.0mph /  4.8km/h 10.0mph /  16.1km/h 80% 0.00in /  0mm WeatherDisplay:10.37 W/m2 OVC
07:40 28.7 °F /  -1.8 °C 23.3 °F /  -4.8 °C 30.07in /  1018.2hPa WSW 6.0mph /  9.7km/h 12.0mph /  19.3km/h 80% 0.00in /  0mm WeatherDisplay:10.37 W/m2 OVC
07:50 28.8 °F /  -1.8 °C 23.7 °F /  -4.6 °C 30.07in /  1018.2hPa WSW 5.0mph /  8km/h 13.0mph /  20.9km/h 81% 0.00in /  0mm WeatherDisplay:10.37 W/m2 OVC
08:00 28.8 °F /  -1.8 °C 23.7 °F /  -4.6 °C 30.08in /  1018.5hPa WSW 5.0mph /  8km/h 13.0mph /  20.9km/h 81% 0.00in /  0mm WeatherDisplay:10.37 W/m2 OVC
08:10 28.9 °F /  -1.7 °C 23.8 °F /  -4.6 °C 30.07in /  1018.2hPa WSW 5.0mph /  8km/h 12.0mph /  19.3km/h 81% 0.00in /  0mm WeatherDisplay:10.37 W/m2 OVC
08:20 29.0 °F /  -1.7 °C 23.9 °F /  -4.5 °C 30.07in /  1018.2hPa WSW 6.0mph /  9.7km/h 12.0mph /  19.3km/h 81% 0.00in /  0mm WeatherDisplay:10.37 W/m2 OVC
08:30 29.0 °F /  -1.7 °C 23.9 °F /  -4.5 °C 30.08in /  1018.5hPa WSW 7.0mph /  11.3km/h 15.0mph /  24.1km/h 81% 0.00in /  0mm WeatherDisplay:10.37 W/m2 OVC
08:40 29.1 °F /  -1.6 °C 24.3 °F /  -4.3 °C 30.08in /  1018.5hPa WSW 6.0mph /  9.7km/h 13.0mph /  20.9km/h 82% 0.00in /  0mm WeatherDisplay:10.37 W/m2 OVC
08:50 29.2 °F /  -1.6 °C 24.4 °F /  -4.2 °C 30.08in /  1018.5hPa WSW 7.0mph /  11.3km/h 12.0mph /  19.3km/h 82% 0.00in /  0mm WeatherDisplay:10.37 W/m2 OVC
09:00 29.4 °F /  -1.4 °C 24.3 °F /  -4.3 °C 30.08in /  1018.5hPa WSW 6.0mph /  9.7km/h 12.0mph /  19.3km/h 81% 0.00in /  0mm WeatherDisplay:10.37 W/m2 OVC
09:10 29.5 °F /  -1.4 °C 24.4 °F /  -4.2 °C 30.08in /  1018.5hPa WSW 3.0mph /  4.8km/h 14.0mph /  22.5km/h 81% 0.00in /  0mm WeatherDisplay:10.37 W/m2 OVC
09:20 29.6 °F /  -1.3 °C 24.2 °F /  -4.3 °C 30.09in /  1018.8hPa SW 7.0mph /  11.3km/h 12.0mph /  19.3km/h 80% 0.00in /  0mm WeatherDisplay:10.37 W/m2 OVC
09:30 29.8 °F /  -1.2 °C 24.1 °F /  -4.4 °C 30.08in /  1018.5hPa WSW 6.0mph /  9.7km/h 12.0mph /  19.3km/h 79% 0.00in /  0mm WeatherDisplay:10.37 W/m2 OVC
09:40 30.1 °F /  -1.1 °C 24.1 °F /  -4.4 °C 30.08in /  1018.5hPa WSW 6.0mph /  9.7km/h 14.0mph /  22.5km/h 78% 0.00in /  0mm WeatherDisplay:10.37 W/m2 OVC
09:50 30.7 °F /  -0.7 °C 24.6 °F /  -4.1 °C 30.08in /  1018.5hPa WSW 8.0mph /  12.9km/h 16.0mph /  25.7km/h 78% 0.00in /  0mm WeatherDisplay:10.37 W/m2 OVC
10:00 31.3 °F /  -0.4 °C 25.3 °F /  -3.7 °C 30.07in /  1018.2hPa WSW 8.0mph /  12.9km/h 14.0mph /  22.5km/h 78% 0.00in /  0mm WeatherDisplay:10.37 W/m2 OVC
10:10 31.9 °F /  -0.1 °C 25.2 °F /  -3.8 °C 30.08in /  1018.5hPa WSW 8.0mph /  12.9km/h 16.0mph /  25.7km/h 76% 0.00in /  0mm WeatherDisplay:10.37 W/m2 OVC
10:20 32.1 °F /  0.1 °C 25.4 °F /  -3.7 °C 30.07in /  1018.2hPa WSW 7.0mph /  11.3km/h 22.0mph /  35.4km/h 76% 0.00in /  0mm WeatherDisplay:10.37 W/m2 OVC
10:30 32.7 °F /  0.4 °C 26.0 °F /  -3.3 °C 30.07in /  1018.2hPa WSW 8.0mph /  12.9km/h 14.0mph /  22.5km/h 76% 0.00in /  0mm WeatherDisplay:10.37 W/m2 BKN
10:40 33.4 °F /  0.8 °C 26.9 °F /  -2.8 °C 30.06in /  1017.8hPa WSW 3.0mph /  4.8km/h 15.0mph /  24.1km/h 77% 0.00in /  0mm WeatherDisplay:10.37 W/m2 BKN
10:50 35.0 °F /  1.7 °C 27.9 °F /  -2.3 °C 30.06in /  1017.8hPa SW 7.0mph /  11.3km/h 16.0mph /  25.7km/h 75% 0.00in /  0mm WeatherDisplay:10.37 W/m2 BKN
11:00 35.2 °F /  1.8 °C 27.1 °F /  -2.7 °C 30.05in /  1017.5hPa SW 8.0mph /  12.9km/h 18.0mph /  29km/h 72% 0.00in /  0mm WeatherDisplay:10.37 W/m2 BKN
11:10 36.4 °F /  2.4 °C 27.9 °F /  -2.3 °C 30.05in /  1017.5hPa SW 9.0mph /  14.5km/h 15.0mph /  24.1km/h 71% 0.00in /  0mm WeatherDisplay:10.37 W/m2 SCT
11:20 36.9 °F /  2.7 °C 28.4 °F /  -2 °C 30.04in /  1017.2hPa SW 6.0mph /  9.7km/h 15.0mph /  24.1km/h 71% 0.00in /  0mm WeatherDisplay:10.37 W/m2 SCT
11:30 37.7 °F /  3.2 °C 28.5 °F /  -1.9 °C 30.04in /  1017.2hPa WSW 10.0mph /  16.1km/h 17.0mph /  27.4km/h 69% 0.00in /  0mm WeatherDisplay:10.37 W/m2 SCT
11:40 37.9 °F /  3.3 °C 29.4 °F /  -1.4 °C 30.03in /  1016.8hPa WSW 8.0mph /  12.9km/h 21.0mph /  33.8km/h 71% 0.00in /  0mm WeatherDisplay:10.37 W/m2 SCT
11:50 39.4 °F /  4.1 °C 29.7 °F /  -1.3 °C 30.02in /  1016.5hPa SW 8.0mph /  12.9km/h 20.0mph /  32.2km/h 68% 0.00in /  0mm WeatherDisplay:10.37 W/m2 SCT
12:00 39.9 °F /  4.4 °C 29.5 °F /  -1.4 °C 30.02in /  1016.5hPa WSW 7.0mph /  11.3km/h 16.0mph /  25.7km/h 66% 0.00in /  0mm WeatherDisplay:10.37 W/m2 SCT
12:10 40.7 °F /  4.8 °C 30.6 °F /  -0.8 °C 30.01in /  1016.1hPa SW 7.0mph /  11.3km/h 21.0mph /  33.8km/h 67% 0.00in /  0mm WeatherDisplay:10.37 W/m2 SCT
12:20 41.5 °F /  5.3 °C 29.8 °F /  -1.2 °C 30.01in /  1016.1hPa WSW 10.0mph /  16.1km/h 17.0mph /  27.4km/h 63% 0.00in /  0mm WeatherDisplay:10.37 W/m2 SCT
12:30 42.2 °F /  5.7 °C 30.9 °F /  -0.6 °C 30.00in /  1015.8hPa WSW 9.0mph /  14.5km/h 18.0mph /  29km/h 64% 0.00in /  0mm WeatherDisplay:10.37 W/m2 CLR
12:40 43.4 °F /  6.3 °C 31.3 °F /  -0.4 °C 29.99in /  1015.5hPa SW 9.0mph /  14.5km/h 18.0mph /  29km/h 62% 0.00in /  0mm WeatherDisplay:10.37 W/m2 CLR
12:50 43.5 °F /  6.4 °C 31.0 °F /  -0.6 °C 29.99in /  1015.5hPa WSW 9.0mph /  14.5km/h 20.0mph /  32.2km/h 61% 0.00in /  0mm WeatherDisplay:10.37 W/m2 CLR
13:00 44.3 °F /  6.8 °C 31.3 °F /  -0.4 °C 29.99in /  1015.5hPa WSW 9.0mph /  14.5km/h 23.0mph /  37km/h 60% 0.00in /  0mm WeatherDisplay:10.37 W/m2 CLR
13:10 45.0 °F /  7.2 °C 31.9 °F /  -0.1 °C 29.98in /  1015.1hPa WSW 8.0mph /  12.9km/h 20.0mph /  32.2km/h 60% 0.00in /  0mm WeatherDisplay:10.37 W/m2 CLR
13:20 45.8 °F /  7.7 °C 32.3 °F /  0.2 °C 29.97in /  1014.8hPa WSW 9.0mph /  14.5km/h 19.0mph /  30.6km/h 59% 0.00in /  0mm WeatherDisplay:10.37 W/m2 CLR
13:30 46.5 °F /  8.1 °C 33.3 °F /  0.7 °C 29.96in /  1014.4hPa SW 10.0mph /  16.1km/h 20.0mph /  32.2km/h 60% 0.00in /  0mm WeatherDisplay:10.37 W/m2 CLR
13:40 47.3 °F /  8.5 °C 34.5 °F /  1.4 °C 29.95in /  1014.1hPa WSW 9.0mph /  14.5km/h 20.0mph /  32.2km/h 61% 0.00in /  0mm WeatherDisplay:10.37 W/m2 CLR
13:50 47.8 °F /  8.8 °C 33.8 °F /  1 °C 29.96in /  1014.4hPa WSW 10.0mph /  16.1km/h 21.0mph /  33.8km/h 58% 0.00in /  0mm WeatherDisplay:10.37 W/m2 CLR
14:00 48.5 °F /  9.2 °C 33.9 °F /  1.1 °C 29.95in /  1014.1hPa WSW 9.0mph /  14.5km/h 20.0mph /  32.2km/h 57% 0.00in /  0mm WeatherDisplay:10.37 W/m2 CLR
14:10 49.1 °F /  9.5 °C 33.6 °F /  0.9 °C 29.94in /  1013.8hPa WSW 8.0mph /  12.9km/h 19.0mph /  30.6km/h 55% 0.00in /  0mm WeatherDisplay:10.37 W/m2 CLR
14:20 50.2 °F /  10.1 °C 34.1 °F /  1.2 °C 29.94in /  1013.8hPa SW 12.0mph /  19.3km/h 21.0mph /  33.8km/h 54% 0.00in /  0mm WeatherDisplay:10.37 W/m2 CLR
14:30 50.6 °F /  10.3 °C 34.6 °F /  1.4 °C 29.94in /  1013.8hPa WSW 6.0mph /  9.7km/h 20.0mph /  32.2km/h 54% 0.00in /  0mm WeatherDisplay:10.37 W/m2 CLR
14:40 51.2 °F /  10.7 °C 33.2 °F /  0.7 °C 29.93in /  1013.4hPa WSW 13.0mph /  20.9km/h 22.0mph /  35.4km/h 50% 0.00in /  0mm WeatherDisplay:10.37 W/m2 CLR
14:50 51.1 °F /  10.6 °C 32.6 °F /  0.3 °C 29.93in /  1013.4hPa WSW 12.0mph /  19.3km/h 26.0mph /  41.8km/h 49% 0.00in /  0mm WeatherDisplay:10.37 W/m2 CLR
15:00 52.1 °F /  11.2 °C 33.0 °F /  0.6 °C 29.93in /  1013.4hPa WSW 12.0mph /  19.3km/h 17.0mph /  27.4km/h 48% 0.00in /  0mm WeatherDisplay:10.37 W/m2 CLR
15:10 52.0 °F /  11.1 °C 32.9 °F /  0.5 °C 29.92in /  1013.1hPa WSW 9.0mph /  14.5km/h 25.0mph /  40.2km/h 48% 0.00in /  0mm WeatherDisplay:10.37 W/m2 CLR
15:20 52.6 °F /  11.4 °C 32.4 °F /  0.2 °C 29.92in /  1013.1hPa WSW 8.0mph /  12.9km/h 24.0mph /  38.6km/h 46% 0.00in /  0mm WeatherDisplay:10.37 W/m2 CLR
15:30 53.1 °F /  11.7 °C 32.3 °F /  0.2 °C 29.91in /  1012.8hPa SW 10.0mph /  16.1km/h 23.0mph /  37km/h 45% 0.00in /  0mm WeatherDisplay:10.37 W/m2 CLR
15:40 53.1 °F /  11.7 °C 31.8 °F /  -0.1 °C 29.91in /  1012.8hPa WSW 10.0mph /  16.1km/h 21.0mph /  33.8km/h 44% 0.00in /  0mm WeatherDisplay:10.37 W/m2 CLR
15:50 53.9 °F /  12.2 °C 32.5 °F /  0.3 °C 29.91in /  1012.8hPa WSW 9.0mph /  14.5km/h 24.0mph /  38.6km/h 44% 0.00in /  0mm WeatherDisplay:10.37 W/m2 CLR
16:00 54.4 °F /  12.4 °C 31.8 °F /  -0.1 °C 29.91in /  1012.8hPa WSW 10.0mph /  16.1km/h 19.0mph /  30.6km/h 42% 0.00in /  0mm WeatherDisplay:10.37 W/m2 CLR
16:10 54.4 °F /  12.4 °C 31.8 °F /  -0.1 °C 29.91in /  1012.8hPa WSW 12.0mph /  19.3km/h 23.0mph /  37km/h 42% 0.00in /  0mm WeatherDisplay:10.37 W/m2 CLR
16:20 54.5 °F /  12.5 °C 32.5 °F /  0.3 °C 29.90in /  1012.4hPa WSW 10.0mph /  16.1km/h 25.0mph /  40.2km/h 43% 0.00in /  0mm WeatherDisplay:10.37 W/m2 CLR
16:30 54.7 °F /  12.6 °C 31.4 °F /  -0.3 °C 29.90in /  1012.4hPa WSW 13.0mph /  20.9km/h 27.0mph /  43.5km/h 41% 0.00in /  0mm WeatherDisplay:10.37 W/m2 CLR
16:40 55.4 °F /  13 °C 33.2 °F /  0.7 °C 29.90in /  1012.4hPa WSW 10.0mph /  16.1km/h 26.0mph /  41.8km/h 43% 0.00in /  0mm WeatherDisplay:10.37 W/m2 CLR
16:50 55.8 °F /  13.2 °C 33.0 °F /  0.6 °C 29.89in /  1012.1hPa WSW 10.0mph /  16.1km/h 22.0mph /  35.4km/h 42% 0.00in /  0mm WeatherDisplay:10.37 W/m2 CLR
17:00 56.5 °F /  13.6 °C 33.7 °F /  0.9 °C 29.89in /  1012.1hPa WSW 8.0mph /  12.9km/h 17.0mph /  27.4km/h 42% 0.00in /  0mm WeatherDisplay:10.37 W/m2 CLR
17:10 56.6 °F /  13.7 °C 34.4 °F /  1.3 °C 29.89in /  1012.1hPa SW 7.0mph /  11.3km/h 16.0mph /  25.7km/h 43% 0.00in /  0mm WeatherDisplay:10.37 W/m2 CLR
17:20 56.6 °F /  13.7 °C 33.7 °F /  0.9 °C 29.89in /  1012.1hPa SW 15.0mph /  24.1km/h 22.0mph /  35.4km/h 42% 0.00in /  0mm WeatherDisplay:10.37 W/m2 CLR
17:30 56.3 °F /  13.5 °C 34.0 °F /  1.1 °C 29.89in /  1012.1hPa WSW 8.0mph /  12.9km/h 20.0mph /  32.2km/h 43% 0.00in /  0mm WeatherDisplay:10.37 W/m2 CLR
17:40 56.6 °F /  13.7 °C 34.3 °F /  1.3 °C 29.89in /  1012.1hPa SW 8.0mph /  12.9km/h 18.0mph /  29km/h 43% 0.00in /  0mm WeatherDisplay:10.37 W/m2 CLR
17:50 56.7 °F /  13.7 °C 34.4 °F /  1.3 °C 29.89in /  1012.1hPa SW 10.0mph /  16.1km/h 20.0mph /  32.2km/h 43% 0.00in /  0mm WeatherDisplay:10.37 W/m2 CLR
18:00 56.8 °F /  13.8 °C 34.5 °F /  1.4 °C 29.89in /  1012.1hPa WSW 8.0mph /  12.9km/h 17.0mph /  27.4km/h 43% 0.00in /  0mm WeatherDisplay:10.37 W/m2 CLR
18:10 56.4 °F /  13.6 °C 34.7 °F /  1.5 °C 29.88in /  1011.7hPa WSW 12.0mph /  19.3km/h 21.0mph /  33.8km/h 44% 0.00in /  0mm WeatherDisplay:10.37 W/m2 CLR
18:20 56.3 °F /  13.5 °C 35.2 °F /  1.8 °C 29.89in /  1012.1hPa WSW 8.0mph /  12.9km/h 22.0mph /  35.4km/h 45% 0.00in /  0mm WeatherDisplay:10.37 W/m2 CLR
18:30 56.4 °F /  13.6 °C 35.3 °F /  1.8 °C 29.89in /  1012.1hPa WSW 9.0mph /  14.5km/h 17.0mph /  27.4km/h 45% 0.00in /  0mm WeatherDisplay:10.37 W/m2 CLR
18:40 56.4 °F /  13.6 °C 35.9 °F /  2.2 °C 29.89in /  1012.1hPa WSW 8.0mph /  12.9km/h 17.0mph /  27.4km/h 46% 0.00in /  0mm WeatherDisplay:10.37 W/m2 CLR
18:50 56.4 °F /  13.6 °C 35.8 °F /  2.1 °C 29.89in /  1012.1hPa WSW 7.0mph /  11.3km/h 17.0mph /  27.4km/h 46% 0.00in /  0mm WeatherDisplay:10.37 W/m2 CLR
19:00 56.3 °F /  13.5 °C 36.3 °F /  2.4 °C 29.89in /  1012.1hPa SW 8.0mph /  12.9km/h 15.0mph /  24.1km/h 47% 0.00in /  0mm WeatherDisplay:10.37 W/m2 CLR
19:10 56.2 °F /  13.4 °C 36.8 °F /  2.7 °C 29.89in /  1012.1hPa WSW 6.0mph /  9.7km/h 15.0mph /  24.1km/h 48% 0.00in /  0mm WeatherDisplay:10.37 W/m2 CLR
19:20 56.1 °F /  13.4 °C 37.2 °F /  2.9 °C 29.89in /  1012.1hPa WSW 7.0mph /  11.3km/h 20.0mph /  32.2km/h 49% 0.00in /  0mm WeatherDisplay:10.37 W/m2 CLR
19:30 56.0 °F /  13.3 °C 37.1 °F /  2.8 °C 29.89in /  1012.1hPa SW 5.0mph /  8km/h 16.0mph /  25.7km/h 49% 0.00in /  0mm WeatherDisplay:10.37 W/m2 CLR
19:40 55.7 °F /  13.2 °C 37.3 °F /  2.9 °C 29.89in /  1012.1hPa WSW 3.0mph /  4.8km/h 11.0mph /  17.7km/h 50% 0.00in /  0mm WeatherDisplay:10.37 W/m2 CLR
19:50 55.3 °F /  12.9 °C 37.5 °F /  3.1 °C 29.89in /  1012.1hPa WSW 3.0mph /  4.8km/h 10.0mph /  16.1km/h 51% 0.00in /  0mm WeatherDisplay:10.37 W/m2 CLR
20:00 55.0 °F /  12.8 °C 38.2 °F /  3.4 °C 29.89in /  1012.1hPa WSW 6.0mph /  9.7km/h 12.0mph /  19.3km/h 53% 0.00in /  0mm WeatherDisplay:10.37 W/m2 CLR
20:10 54.7 °F /  12.6 °C 38.4 °F /  3.6 °C 29.89in /  1012.1hPa SW 7.0mph /  11.3km/h 12.0mph /  19.3km/h 54% 0.00in /  0mm WeatherDisplay:10.37 W/m2 CLR
20:20 54.5 °F /  12.5 °C 38.7 °F /  3.7 °C 29.89in /  1012.1hPa WSW 5.0mph /  8km/h 12.0mph /  19.3km/h 55% 0.00in /  0mm WeatherDisplay:10.37 W/m2 CLR
20:30 54.4 °F /  12.4 °C 39.0 °F /  3.9 °C 29.89in /  1012.1hPa WSW 3.0mph /  4.8km/h 12.0mph /  19.3km/h 56% 0.00in /  0mm WeatherDisplay:10.37 W/m2 CLR
20:40 54.4 °F /  12.4 °C 39.5 °F /  4.2 °C 29.90in /  1012.4hPa WSW 5.0mph /  8km/h 12.0mph /  19.3km/h 57% 0.00in /  0mm WeatherDisplay:10.37 W/m2 CLR
20:50 54.7 °F /  12.6 °C 39.8 °F /  4.3 °C 29.90in /  1012.4hPa WSW 5.0mph /  8km/h 12.0mph /  19.3km/h 57% 0.00in /  0mm WeatherDisplay:10.37 W/m2 CLR
21:00 54.8 °F /  12.7 °C 40.3 °F /  4.6 °C 29.91in /  1012.8hPa West 6.0mph /  9.7km/h 14.0mph /  22.5km/h 58% 0.00in /  0mm WeatherDisplay:10.37 W/m2 CLR
21:10 54.8 °F /  12.7 °C 40.3 °F /  4.6 °C 29.91in /  1012.8hPa WSW 6.0mph /  9.7km/h 12.0mph /  19.3km/h 58% 0.00in /  0mm WeatherDisplay:10.37 W/m2 CLR
21:20 54.8 °F /  12.7 °C 40.3 °F /  4.6 °C 29.91in /  1012.8hPa WSW 6.0mph /  9.7km/h 10.0mph /  16.1km/h 58% 0.00in /  0mm WeatherDisplay:10.37 W/m2 CLR
21:30 54.8 °F /  12.7 °C 40.7 °F /  4.8 °C 29.92in /  1013.1hPa WSW 6.0mph /  9.7km/h 12.0mph /  19.3km/h 59% 0.00in /  0mm WeatherDisplay:10.37 W/m2 CLR
21:40 54.8 °F /  12.7 °C 40.7 °F /  4.8 °C 29.92in /  1013.1hPa WSW 5.0mph /  8km/h 13.0mph /  20.9km/h 59% 0.00in /  0mm WeatherDisplay:10.37 W/m2 CLR
21:50 54.7 °F /  12.6 °C 40.7 °F /  4.8 °C 29.92in /  1013.1hPa WSW 5.0mph /  8km/h 12.0mph /  19.3km/h 59% 0.00in /  0mm WeatherDisplay:10.37 W/m2 BKN
22:00 54.8 °F /  12.7 °C 41.2 °F /  5.1 °C 29.92in /  1013.1hPa WSW 3.0mph /  4.8km/h 12.0mph /  19.3km/h 60% 0.00in /  0mm WeatherDisplay:10.37 W/m2 BKN
22:10 54.7 °F /  12.6 °C 41.1 °F /  5.1 °C 29.91in /  1012.8hPa WSW 6.0mph /  9.7km/h 12.0mph /  19.3km/h 60% 0.00in /  0mm WeatherDisplay:10.37 W/m2 BKN
22:20 54.7 °F /  12.6 °C 41.1 °F /  5.1 °C 29.91in /  1012.8hPa WSW 5.0mph /  8km/h 9.0mph /  14.5km/h 60% 0.00in /  0mm WeatherDisplay:10.37 W/m2 BKN
22:30 54.7 °F /  12.6 °C 41.5 °F /  5.3 °C 29.91in /  1012.8hPa WSW 3.0mph /  4.8km/h 12.0mph /  19.3km/h 61% 0.00in /  0mm WeatherDisplay:10.37 W/m2 BKN
22:40 54.7 °F /  12.6 °C 41.5 °F /  5.3 °C 29.91in /  1012.8hPa West 3.0mph /  4.8km/h 7.0mph /  11.3km/h 61% 0.00in /  0mm WeatherDisplay:10.37 W/m2 BKN
22:50 54.7 °F /  12.6 °C 41.5 °F /  5.3 °C 29.91in /  1012.8hPa WSW 5.0mph /  8km/h 10.0mph /  16.1km/h 61% 0.00in /  0mm WeatherDisplay:10.37 W/m2 OVC
23:00 54.8 °F /  12.7 °C 41.6 °F /  5.3 °C 29.91in /  1012.8hPa WSW 5.0mph /  8km/h 10.0mph /  16.1km/h 61% 0.00in /  0mm WeatherDisplay:10.37 W/m2 OVC
23:10 54.8 °F /  12.7 °C 41.6 °F /  5.3 °C 29.91in /  1012.8hPa WSW 5.0mph /  8km/h 12.0mph /  19.3km/h 61% 0.00in /  0mm WeatherDisplay:10.37 W/m2 OVC
23:20 54.6 °F /  12.6 °C 41.4 °F /  5.2 °C 29.90in /  1012.4hPa WSW 3.0mph /  4.8km/h 12.0mph /  19.3km/h 61% 0.00in /  0mm WeatherDisplay:10.37 W/m2 OVC
23:30 54.4 °F /  12.4 °C 41.6 °F /  5.3 °C 29.90in /  1012.4hPa WSW 5.0mph /  8km/h 8.0mph /  12.9km/h 62% 0.00in /  0mm WeatherDisplay:10.37 W/m2 OVC
23:40 54.1 °F /  12.3 °C 41.4 °F /  5.2 °C 29.90in /  1012.4hPa WSW 5.0mph /  8km/h 10.0mph /  16.1km/h 62% 0.00in /  0mm WeatherDisplay:10.37 W/m2 OVC
23:50 53.8 °F /  12.1 °C 41.5 °F /  5.3 °C 29.89in /  1012.1hPa WSW 3.0mph /  4.8km/h 9.0mph /  14.5km/h 63% 0.00in /  0mm WeatherDisplay:10.37 W/m2 OVC
Smyth Weather
Compliments of Weather Underground - 1.5 mb